Home > Products > Valid Products > TAF

000
FTUS45 KPUB 241720
TAFCOS
TAF
KCOS 241720Z 2418/2518 16010KT P6SM SCT040
     FM242100 20015G25KT P6SM SCT120 SCT250
     FM250200 34010KT P6SM SCT250
     FM251700 17010KT P6SM SKC=



000
FTUS45 KPUB 241720
TAFPUB
TAF
KPUB 241720Z 2418/2518 VRB05KT P6SM SKC
     FM242000 19012G22KT P6SM FEW150 SCT250
     FM242200 22015G25KT P6SM SCT150 SCT250
     FM250200 32010KT P6SM SCT250
     FM250900 VRB05KT P6SM SKC=



000
FTUS45 KPUB 241720
TAFALS
TAF
KALS 241720Z 2418/2518 20015G25KT P6SM SKC
     FM242000 23015G25KT P6SM FEW120 SCT250
     FM250200 21008KT P6SM FEW120 SCT250
     FM251600 21012KT P6SM SKC=



000
FTUS45 KPUB 241316 AAA
TAFPUB
TAF AMD
KPUB 241316Z 2413/2512 VRB05KT P6SM BKN030
     FM241500 14007KT P6SM SCT250
     FM242000 19012G22KT P6SM FEW150 SCT250
     FM242200 22015G25KT P6SM SCT150 SCT250
     FM250200 32010KT P6SM SCT250=



000
FTUS45 KPUB 241120
TAFALS
TAF
KALS 241120Z 2412/2512 VRB04KT P6SM SKC
     FM241600 19010KT P6SM FEW250
     FM241900 23015G25KT P6SM FEW120 SCT250
     FM250200 21008KT P6SM FEW120 SCT250=



000
FTUS45 KPUB 241120
TAFPUB
TAF
KPUB 241120Z 2412/2512 VRB05KT P6SM SCT030
     FM241500 14007KT P6SM SCT250
     FM242000 19012G22KT P6SM FEW150 SCT250
     FM242200 22015G25KT P6SM SCT150 SCT250
     FM250200 32010KT P6SM SCT250=



000
FTUS45 KPUB 241120
TAFCOS
TAF
KCOS 241120Z 2412/2512 VRB05KT P6SM SCT015 BKN025
     FM241400 15007KT P6SM FEW250
     FM241800 18012G22KT P6SM FEW120 SCT250
     FM242100 20015G25KT P6SM SCT120 SCT250
     FM250200 34010KT P6SM SCT250=



000
FTUS45 KPUB 240503 AAD
TAFPUB
TAF AMD
KPUB 240503Z 2405/2424 01015KT P6SM FEW150
     FM240700 VRB05KT P6SM SKC
     FM241900 19013G23KT P6SM SCT120 SCT250=



000
FTUS45 KPUB 232331
TAFALS
TAF
KALS 232331Z 2400/2424 24014G24KT P6SM SCT100 SCT250
     FM240200 23010KT P6SM SCT100 SCT250
     FM240500 VRB05KT P6SM SKC
     FM241500 19008KT P6SM SKC
     FM241800 22015G25KT P6SM SCT100 SCT250=



000
FTUS45 KPUB 232331
TAFCOS
TAF
KCOS 232331Z 2400/2424 18012KT P6SM SCT110 SCT250
     FM240200 01011KT P6SM FEW110 SCT250
     FM240600 01007KT P6SM SKC
     FM241800 16015G25KT P6SM SCT110 SCT250=



000
FTUS45 KPUB 232331
TAFPUB
TAF
KPUB 232331Z 2400/2424 10010KT P6SM SCT120 SCT250
     FM240300 02010KT P6SM FEW120 SCT250
     FM240700 VRB05KT P6SM SKC
     FM241900 19013G23KT P6SM SCT120 SCT250=



000
FTUS45 KPUB 231121
TAFPUB
TAF
KPUB 231121Z 2312/2412 35009KT P6SM FEW250
     FM231400 10010KT P6SM FEW250
     FM231800 14012KT P6SM FEW100 SCT250
     FM232200 17012G24KT P6SM FEW100 SCT250
     FM240300 34014KT P6SM FEW250=



000
FTUS45 KPUB 231121
TAFALS
TAF
KALS 231121Z 2312/2412 18007KT P6SM SKC
     FM231600 20015KT P6SM FEW250
     FM232000 23020G32KT P6SM FEW100 SCT250
     FM240300 25008KT P6SM SKC=



000
FTUS45 KPUB 231121
TAFCOS
TAF
KCOS 231121Z 2312/2412 03010KT P6SM FEW250
     FM231400 14012KT P6SM FEW250
     FM231700 18018G28KT P6SM FEW100 SCT250
     FM240300 35012KT P6SM SCT250=



000
FTUS45 KPUB 230520
TAFCOS
TAF
KCOS 230520Z 2306/2406 01010KT P6SM SKC
     FM231400 14012KT P6SM SKC
     FM231700 18018G28KT P6SM FEW100 SCT250
     FM240300 35012KT P6SM FEW250=



000
FTUS45 KPUB 230520
TAFALS
TAF
KALS 230520Z 2306/2406 18007KT P6SM SKC
     FM231600 20015KT P6SM FEW250
     FM232000 23020G32KT P6SM FEW100 SCT250
     FM240300 25008KT P6SM SKC=



000
FTUS45 KPUB 230520
TAFPUB
TAF
KPUB 230520Z 2306/2406 35009KT P6SM SKC
     FM231400 10010KT P6SM SKC
     FM231800 14012KT P6SM FEW100 SCT250
     FM232200 17012G24KT P6SM FEW100 SCT250
     FM240300 34014KT P6SM FEW250=



000
FTUS45 KPUB 222108 AAA
TAFCOS
TAF AMD
KCOS 222108Z 2221/2318 19015G30KT P6SM FEW100 SCT200 BKN250
     FM230200 29014KT P6SM FEW150 SCT200
     FM230500 35010KT P6SM SCT150 BKN200=



000
FTUS45 KPUB 221734 AAA
TAFPUB
TAF AMD
KPUB 221734Z 2218/2318 17010G20KT P6SM SKC
     FM221900 21015G30KT P6SM FEW090 SCT250
     FM230300 29012KT P6SM FEW150 SCT200
     FM230600 34012KT P6SM SCT150 BKN200=



000
FTUS45 KPUB 221720
TAFALS
TAF
KALS 221720Z 2218/2318 22015G30KT P6SM SKC
     FM221900 23020G35KT P6SM FEW070 FEW250
     FM230300 23009KT P6SM SCT250=



000
FTUS45 KPUB 221720
TAFPUB
TAF
KPUB 221720Z 2218/2318 25003KT P6SM SKC
     FM221900 21015G30KT P6SM FEW090 SCT250
     FM230300 29012KT P6SM FEW150 SCT200
     FM230600 34012KT P6SM SCT150 BKN200=



000
FTUS45 KPUB 221720
TAFCOS
TAF
KCOS 221720Z 2218/2318 22020G30KT P6SM FEW150 SCT200
     FM222000 20020G35KT P6SM FEW090 SCT150 SCT250
     FM230200 29014KT P6SM FEW150 SCT200
     FM230500 35010KT P6SM SCT150 BKN200=



000
FTUS45 KPUB 220520
TAFPUB
TAF
KPUB 220520Z 2206/2306 22016KT P6SM FEW250
     FM220800 31006KT P6SM SKC
     FM221600 18010KT P6SM FEW250
     FM222000 21018G28KT P6SM FEW090 SCT250
     FM230300 29012KT P6SM FEW150 SCT200=



000
FTUS45 KPUB 220520
TAFALS
TAF
KALS 220520Z 2206/2306 19010KT P6SM SKC
     FM221400 21014KT P6SM SKC
     FM221900 23020G32KT P6SM FEW070 FEW250
     FM230300 23009KT P6SM SCT250=



000
FTUS45 KPUB 220520
TAFCOS
TAF
KCOS 220520Z 2206/2306 18010KT P6SM FEW250
     FM220800 07008KT P6SM SKC
     FM221400 16008KT P6SM SKC
     FM221700 17015G25KT P6SM FEW250
     FM222000 20020G32KT P6SM FEW090 SCT250
     FM230200 29014KT P6SM FEW150 SCT200
     FM230500 35010KT P6SM SCT150 BKN200=



000
FTUS45 KPUB 220324 AAA
TAFPUB
TAF AMD
KPUB 220324Z 2203/2224 22016KT P6SM FEW250
     FM220800 31006KT P6SM SKC
     FM221600 18010KT P6SM FEW250
     FM222000 21018G28KT P6SM FEW090 SCT250=



000
FTUS45 KPUB 212027 AAB
TAFPUB
TAF AMD
KPUB 212027Z 2120/2218 22020G30KT P6SM FEW100 SCT220
     FM220400 VRB06KT P6SM FEW120 SCT220=



    US Dept of Commerce
    National Oceanic and Atmospheric Administration
    National Weather Service
    1325 East West Highway
    Silver Spring, MD 20910
    Page Author: NWS Internet Services Team
Disclaimer
Information Quality
Credits
Glossary
Privacy Policy
Freedom of Information Act (FOIA)
About Us
Career Opportunities